Time;durP1;ratioP1;P1;durP2;ratioP2;P2;SDS_P1;SDS_P2;PMS_P1;PMS_P2;Temp;Humidity;BMP_temperature;BMP_pressure;BME280_temperature;BME280_humidity;BME280_pressure;Samples;Min_cycle;Max_cycle;Signal;HPM_P1;HPM_P2
2021/11/14 00:01:14;;;;;;;19.85;15.18;;;13.80;97.10;;;;;;5073509;28;20063;-60
2021/11/14 00:03:40;;;;;;;18.02;14.35;;;13.90;97.40;;;;;;5070991;28;20115;-60
2021/11/14 00:06:07;;;;;;;27.25;20.33;;;13.90;97.80;;;;;;5057424;28;20167;-61
2021/11/14 00:08:33;;;;;;;26.92;21.33;;;14.10;97.60;;;;;;5057519;28;20465;-61
2021/11/14 00:11:10;;;;;;;27.90;21.10;;;14.10;96.90;;;;;;5072083;28;20094;-61
2021/11/14 00:13:37;;;;;;;25.80;18.67;;;13.90;96.40;;;;;;5072369;28;20070;-61
2021/11/14 00:16:03;;;;;;;34.78;22.20;;;13.60;96.90;;;;;;5071634;28;20435;-61
2021/11/14 00:18:29;;;;;;;30.10;20.80;;;13.50;97.30;;;;;;5071864;28;20048;-61
2021/11/14 00:20:55;;;;;;;28.40;20.35;;;13.30;97.30;;;;;;5073772;28;20128;-61
2021/11/14 00:23:21;;;;;;;28.75;17.90;;;13.20;97.10;;;;;;5069856;28;20036;-61
2021/11/14 00:25:47;;;;;;;29.58;21.65;;;13.10;97.40;;;;;;5071127;28;20039;-61
2021/11/14 00:28:12;;;;;;;26.75;19.80;;;12.90;97.30;;;;;;5069396;28;20075;-61
2021/11/14 00:30:39;;;;;;;24.40;19.60;;;12.70;97.40;;;;;;5071416;28;20071;-61
2021/11/14 00:33:09;;;;;;;30.45;21.95;;;12.60;97.70;;;;;;5087140;28;20044;-62
2021/11/14 00:35:35;;;;;;;32.15;23.38;;;12.50;97.80;;;;;;5051308;28;20055;-64
2021/11/14 00:38:01;;;;;;;30.30;22.80;;;12.40;97.60;;;;;;5057822;28;20049;-64
2021/11/14 00:40:30;;;;;;;33.10;22.00;;;12.20;97.50;;;;;;5087983;28;20404;-63
2021/11/14 00:42:57;;;;;;;29.70;19.48;;;12.00;97.70;;;;;;5056473;28;20052;-64
2021/11/14 00:45:24;;;;;;;31.05;20.55;;;12.00;97.90;;;;;;5086283;28;20047;-61
2021/11/14 00:47:50;;;;;;;26.35;20.10;;;11.90;97.90;;;;;;5039946;28;20048;-62
2021/11/14 00:50:16;;;;;;;24.95;17.58;;;11.80;97.90;;;;;;5058702;28;20049;-62
2021/11/14 00:52:45;;;;;;;23.77;18.50;;;11.80;98.10;;;;;;5086402;28;20048;-63
2021/11/14 00:55:14;;;;;;;27.05;19.77;;;11.80;98.00;;;;;;5069768;28;20738;-61
2021/11/14 00:57:40;;;;;;;29.55;20.67;;;11.80;98.10;;;;;;5087181;28;20111;-63
2021/11/14 01:00:10;;;;;;;28.70;19.55;;;11.70;97.90;;;;;;5070482;28;20065;-62
2021/11/14 01:02:37;;;;;;;30.30;21.33;;;11.70;97.90;;;;;;5085910;28;20041;-63
2021/11/14 01:05:05;;;;;;;25.33;17.13;;;11.80;98.10;;;;;;5085351;28;20905;-63
2021/11/14 01:07:30;;;;;;;27.73;18.45;;;11.70;98.00;;;;;;5069846;28;20028;-61
2021/11/14 01:09:56;;;;;;;24.95;17.10;;;11.70;98.30;;;;;;5068796;28;20052;-62
2021/11/14 01:12:22;;;;;;;29.02;19.83;;;11.70;98.40;;;;;;5071345;28;20717;-63
2021/11/14 01:14:48;;;;;;;24.17;18.08;;;11.70;98.40;;;;;;5067967;28;20472;-65
2021/11/14 01:17:14;;;;;;;28.50;18.83;;;11.60;98.20;;;;;;5070008;28;20040;-66
2021/11/14 01:19:40;;;;;;;25.48;17.92;;;11.60;98.10;;;;;;5086979;28;20089;-60
2021/11/14 01:22:06;;;;;;;24.10;18.02;;;11.50;98.20;;;;;;5065227;28;20127;-60
2021/11/14 01:24:31;;;;;;;30.65;19.60;;;11.40;98.20;;;;;;5085668;28;20083;-60
2021/11/14 01:26:57;;;;;;;25.15;17.35;;;11.30;98.30;;;;;;5070371;28;20545;-60
2021/11/14 01:29:23;;;;;;;27.33;17.38;;;11.30;98.40;;;;;;5086887;28;20078;-60
2021/11/14 01:31:48;;;;;;;23.75;17.60;;;11.30;98.30;;;;;;5069288;28;20036;-60
2021/11/14 01:34:24;;;;;;;23.63;15.48;;;11.30;98.20;;;;;;5086218;28;20043;-60
2021/11/14 01:36:50;;;;;;;26.77;18.08;;;11.20;98.30;;;;;;5042912;28;20116;-59
2021/11/14 01:39:16;;;;;;;28.80;19.40;;;11.30;98.60;;;;;;5070442;28;20123;-60
2021/11/14 01:41:42;;;;;;;28.60;18.65;;;11.20;98.30;;;;;;5085060;28;20036;-60
2021/11/14 01:44:09;;;;;;;26.73;18.38;;;11.20;98.20;;;;;;5085682;28;20142;-60
2021/11/14 01:46:35;;;;;;;28.33;18.30;;;11.20;98.30;;;;;;5069806;28;20122;-60
2021/11/14 01:49:02;;;;;;;28.88;19.02;;;11.30;98.40;;;;;;5057228;28;20045;-60
2021/11/14 01:51:28;;;;;;;25.38;17.25;;;11.30;98.30;;;;;;5070564;28;20055;-60
2021/11/14 01:53:53;;;;;;;33.42;21.17;;;11.40;98.40;;;;;;5070219;28;20035;-61
2021/11/14 01:56:21;;;;;;;31.48;20.77;;;11.40;98.50;;;;;;5070840;28;20071;-60
2021/11/14 01:58:48;;;;;;;28.92;19.45;;;11.30;98.20;;;;;;5072457;28;20038;-61
2021/11/14 02:01:18;;;;;;;34.03;20.25;;;11.20;98.20;;;;;;5068962;28;20080;-61
2021/11/14 02:03:49;;;;;;;37.20;22.40;;;11.20;98.20;;;;;;5069064;28;20044;-61
2021/11/14 02:06:16;;;;;;;37.95;22.02;;;11.10;98.30;;;;;;5073263;28;20517;-65
2021/11/14 02:08:43;;;;;;;39.80;22.73;;;11.00;98.30;;;;;;5075789;28;20045;-61
2021/11/14 02:11:13;;;;;;;43.53;23.33;;;11.00;98.40;;;;;;5073601;28;20260;-60
2021/11/14 02:13:39;;;;;;;46.25;25.25;;;11.00;98.50;;;;;;5073146;28;20040;-60
2021/11/14 02:16:05;;;;;;;44.33;25.35;;;10.90;98.60;;;;;;5089387;28;20097;-61
2021/11/14 02:18:31;;;;;;;39.83;22.65;;;11.00;98.50;;;;;;5057621;28;20047;-60
2021/11/14 02:20:56;;;;;;;48.80;25.98;;;10.90;98.50;;;;;;5072358;28;20497;-59
2021/11/14 02:23:23;;;;;;;47.88;25.27;;;11.00;98.70;;;;;;5073319;28;21026;-60
2021/11/14 02:25:51;;;;;;;45.17;23.85;;;11.00;98.60;;;;;;5074603;28;20092;-61
2021/11/14 02:28:19;;;;;;;41.63;23.67;;;10.90;98.70;;;;;;5090100;28;20040;-61
2021/11/14 02:30:46;;;;;;;44.45;25.85;;;10.90;99.10;;;;;;5073332;28;20115;-61
2021/11/14 02:33:12;;;;;;;41.10;23.17;;;11.00;99.00;;;;;;5072181;28;20047;-61
2021/11/14 02:35:41;;;;;;;42.42;23.73;;;11.10;99.00;;;;;;5075115;28;20040;-60
2021/11/14 02:38:07;;;;;;;39.38;23.58;;;11.20;98.80;;;;;;5090444;28;20044;-61
2021/11/14 02:40:33;;;;;;;39.50;23.85;;;11.20;98.50;;;;;;5073367;28;20040;-61
2021/11/14 02:42:59;;;;;;;37.92;23.10;;;11.10;98.40;;;;;;5071439;28;20036;-60
2021/11/14 02:45:26;;;;;;;32.78;18.85;;;11.00;98.20;;;;;;5073813;28;20043;-61
2021/11/14 02:47:53;;;;;;;32.97;20.73;;;10.90;98.20;;;;;;5073434;28;20465;-61
2021/11/14 02:50:20;;;;;;;37.47;20.92;;;10.80;98.20;;;;;;5072141;28;20789;-61
2021/11/14 02:52:46;;;;;;;36.80;23.02;;;10.80;98.30;;;;;;5070980;28;20028;-60
2021/11/14 02:55:15;;;;;;;41.97;24.00;;;10.70;98.40;;;;;;5073109;28;20041;-60
2021/11/14 02:57:41;;;;;;;40.13;22.92;;;10.60;98.50;;;;;;5090012;28;20047;-60
2021/11/14 03:00:11;;;;;;;34.00;17.30;;;10.60;98.70;;;;;;5073957;28;20047;-60
2021/11/14 03:02:36;;;;;;;52.42;22.95;;;10.70;98.90;;;;;;5088196;28;20036;-60
2021/11/14 03:05:11;;;;;;;31.23;20.58;;;10.80;99.10;;;;;;5072819;28;20039;-60
2021/11/14 03:07:37;;;;;;;30.85;17.63;;;10.80;98.50;;;;;;5087994;28;20062;-60
2021/11/14 03:10:08;;;;;;;28.75;18.13;;;10.70;98.50;;;;;;5073552;28;20036;-61
2021/11/14 03:12:34;;;;;;;29.00;17.83;;;10.70;98.40;;;;;;5071406;28;20130;-61
2021/11/14 03:15:00;;;;;;;29.85;19.67;;;10.70;98.50;;;;;;5073368;28;20060;-61
2021/11/14 03:17:26;;;;;;;28.70;18.23;;;10.70;98.50;;;;;;5072341;28;20488;-60
2021/11/14 03:19:53;;;;;;;32.58;20.00;;;10.70;98.40;;;;;;5074833;28;20057;-61
2021/11/14 03:22:19;;;;;;;25.20;14.38;;;10.60;98.30;;;;;;5072278;28;20039;-60
2021/11/14 03:24:44;;;;;;;28.25;18.55;;;10.60;98.50;;;;;;5070520;28;20043;-60
2021/11/14 03:27:10;;;;;;;34.22;19.42;;;10.70;98.90;;;;;;5071649;28;20036;-60
2021/11/14 03:29:36;;;;;;;28.60;19.08;;;10.70;98.70;;;;;;5071150;28;20051;-60
2021/11/14 03:32:03;;;;;;;29.63;17.60;;;10.70;98.40;;;;;;5059225;28;20044;-60
2021/11/14 03:34:29;;;;;;;27.77;18.42;;;10.60;98.40;;;;;;5072091;28;20032;-61
2021/11/14 03:36:55;;;;;;;27.90;17.27;;;10.60;98.30;;;;;;5059266;28;20895;-60
2021/11/14 03:39:20;;;;;;;25.40;15.27;;;10.60;98.50;;;;;;5074483;28;20040;-59
2021/11/14 03:41:46;;;;;;;24.00;16.13;;;10.70;98.70;;;;;;5070791;28;20046;-59
2021/11/14 03:44:12;;;;;;;24.83;16.65;;;10.80;98.90;;;;;;5071506;28;20124;-60
2021/11/14 03:46:38;;;;;;;22.45;14.82;;;10.90;99.00;;;;;;5071240;28;20040;-60
2021/11/14 03:49:05;;;;;;;17.85;11.90;;;11.00;98.80;;;;;;5088522;28;20080;-60
2021/11/14 03:51:31;;;;;;;24.90;15.85;;;11.10;98.90;;;;;;5087841;28;20136;-64
2021/11/14 03:53:58;;;;;;;27.52;16.83;;;11.40;99.20;;;;;;5086806;28;20043;-64
2021/11/14 03:56:25;;;;;;;20.52;14.60;;;11.50;98.60;;;;;;5071966;28;20041;-60
2021/11/14 03:58:51;;;;;;;23.92;16.08;;;11.50;98.30;;;;;;5088896;28;20138;-60
2021/11/14 04:01:20;;;;;;;18.05;12.57;;;11.40;98.50;;;;;;5069979;28;20630;-60
2021/11/14 04:03:48;;;;;;;28.08;18.55;;;11.50;98.70;;;;;;5071049;28;20044;-60
2021/11/14 04:06:15;;;;;;;24.95;17.08;;;11.60;98.60;;;;;;5086855;28;20048;-60
2021/11/14 04:08:41;;;;;;;29.48;18.20;;;11.50;98.00;;;;;;5073221;28;20437;-60
2021/11/14 04:11:07;;;;;;;13.15;10.05;;;11.50;97.80;;;;;;5087335;28;20041;-60
2021/11/14 04:13:34;;;;;;;25.08;15.05;;;11.50;98.00;;;;;;5085566;28;20036;-60
2021/11/14 04:16:04;;;;;;;16.90;11.85;;;11.70;98.70;;;;;;5072643;28;20039;-61
2021/11/14 04:18:30;;;;;;;28.33;17.95;;;12.00;98.80;;;;;;5073773;28;20115;-61
2021/11/14 04:20:57;;;;;;;27.83;18.35;;;12.20;98.40;;;;;;5068942;28;20040;-61
2021/11/14 04:23:23;;;;;;;22.90;14.45;;;12.30;97.60;;;;;;5087560;28;20040;-59
2021/11/14 04:25:49;;;;;;;17.08;10.65;;;12.50;97.30;;;;;;5071809;28;20086;-60
2021/11/14 04:28:18;;;;;;;14.45;10.38;;;12.60;97.50;;;;;;5069681;28;20067;-60
2021/11/14 04:30:45;;;;;;;14.43;10.30;;;12.80;98.00;;;;;;5070967;28;20028;-60
2021/11/14 04:33:11;;;;;;;17.52;12.73;;;13.00;98.00;;;;;;5069426;28;20491;-61
2021/11/14 04:35:38;;;;;;;25.30;16.50;;;13.00;97.50;;;;;;5072287;28;20039;-59
2021/11/14 04:38:04;;;;;;;13.88;10.60;;;12.90;96.80;;;;;;5058957;28;20035;-61
2021/11/14 04:40:37;;;;;;;23.38;16.42;;;12.70;96.70;;;;;;5058657;28;20060;-61
2021/11/14 04:43:04;;;;;;;26.07;18.20;;;12.70;97.10;;;;;;5071012;28;20106;-61
2021/11/14 04:45:30;;;;;;;20.83;13.48;;;12.50;96.50;;;;;;5070903;28;20093;-60
2021/11/14 04:47:57;;;;;;;24.10;16.17;;;12.40;96.70;;;;;;5070532;28;20345;-64
2021/11/14 04:50:23;;;;;;;14.40;11.07;;;12.50;97.30;;;;;;5071056;28;20040;-65
2021/11/14 04:52:50;;;;;;;24.02;16.23;;;12.70;97.30;;;;;;5068813;28;20043;-65
2021/11/14 04:55:16;;;;;;;20.65;15.13;;;12.80;97.00;;;;;;5071300;28;20033;-65
2021/11/14 04:57:42;;;;;;;19.38;14.95;;;12.80;96.40;;;;;;5074920;28;20039;-65
2021/11/14 05:00:13;;;;;;;14.65;10.63;;;12.80;96.00;;;;;;5070930;28;20051;-66
2021/11/14 05:02:39;;;;;;;17.33;11.85;;;12.70;96.40;;;;;;5040311;28;21203;-65
2021/11/14 05:05:06;;;;;;;20.88;15.23;;;12.60;96.70;;;;;;5070891;28;20036;-65
2021/11/14 05:07:32;;;;;;;25.85;17.30;;;12.50;96.60;;;;;;5069831;28;20962;-65
2021/11/14 05:09:57;;;;;;;23.95;16.88;;;12.50;96.30;;;;;;5071151;28;20040;-66
2021/11/14 05:12:23;;;;;;;22.38;14.77;;;12.40;95.90;;;;;;5084887;28;20044;-65
2021/11/14 05:14:49;;;;;;;23.23;15.70;;;12.30;95.80;;;;;;5070647;28;20036;-65
2021/11/14 05:17:16;;;;;;;21.23;14.65;;;12.30;95.70;;;;;;5070843;28;20043;-65
2021/11/14 05:19:41;;;;;;;11.70;9.02;;;12.10;95.90;;;;;;5073227;28;20183;-66
2021/11/14 05:22:07;;;;;;;14.60;9.90;;;12.00;96.80;;;;;;5068232;28;20135;-65
2021/11/14 05:24:33;;;;;;;13.40;9.63;;;12.00;97.50;;;;;;5051640;28;20486;-65
2021/11/14 05:26:58;;;;;;;24.30;16.98;;;12.00;97.90;;;;;;5070089;28;20041;-64
2021/11/14 05:29:25;;;;;;;11.18;8.52;;;12.00;97.40;;;;;;5071174;28;20051;-66
2021/11/14 05:31:51;;;;;;;21.45;14.60;;;11.90;97.20;;;;;;5070693;28;20037;-66
2021/11/14 05:34:16;;;;;;;22.63;16.05;;;12.00;98.00;;;;;;5069723;28;20022;-65
2021/11/14 05:36:42;;;;;;;22.25;15.70;;;12.10;97.10;;;;;;5070349;28;20041;-65
2021/11/14 05:39:08;;;;;;;22.58;16.58;;;12.10;96.20;;;;;;5072951;28;20036;-66
2021/11/14 05:41:34;;;;;;;21.85;15.30;;;12.00;96.00;;;;;;5043585;28;20090;-66
2021/11/14 05:43:59;;;;;;;15.95;11.95;;;12.00;95.90;;;;;;5072657;28;20036;-66
2021/11/14 05:46:25;;;;;;;22.67;14.73;;;11.90;96.20;;;;;;5074313;28;20036;-66
2021/11/14 05:48:51;;;;;;;14.32;10.43;;;11.80;96.70;;;;;;5075948;28;20729;-65
2021/11/14 05:51:17;;;;;;;23.73;16.08;;;11.70;96.80;;;;;;5072531;28;20067;-65
2021/11/14 05:53:42;;;;;;;20.42;13.25;;;11.70;97.10;;;;;;5073622;28;20041;-66
2021/11/14 05:56:09;;;;;;;19.02;13.80;;;11.70;96.80;;;;;;5073450;28;20115;-65
2021/11/14 05:58:52;;;;;;;25.27;15.60;;;11.70;96.90;;;;;;5076182;28;20043;-65
2021/11/14 06:02:06;;;;;;;23.13;14.45;;;11.60;96.70;;;;;;5072703;28;20047;-66
2021/11/14 06:04:17;;;;;;;27.08;17.48;;;11.50;96.50;;;;;;5064160;28;20075;-66
2021/11/14 06:06:42;;;;;;;29.23;19.50;;;11.40;96.70;;;;;;5073792;28;20036;-60
2021/11/14 06:09:08;;;;;;;28.02;17.80;;;11.30;96.30;;;;;;5090666;28;20113;-60
2021/11/14 06:11:34;;;;;;;24.92;16.85;;;11.20;96.30;;;;;;5073456;28;20090;-61
2021/11/14 06:13:59;;;;;;;23.70;15.77;;;11.10;96.40;;;;;;5072291;28;20115;-61
2021/11/14 06:16:25;;;;;;;25.52;15.43;;;11.20;96.70;;;;;;5073771;28;20352;-61
2021/11/14 06:18:51;;;;;;;20.70;14.90;;;11.20;96.50;;;;;;5091176;28;20880;-60
2021/11/14 06:21:16;;;;;;;20.90;13.55;;;11.20;96.80;;;;;;5072775;28;22281;-61
2021/11/14 06:23:42;;;;;;;13.68;9.63;;;11.30;97.20;;;;;;5073915;28;20180;-60
2021/11/14 06:26:08;;;;;;;22.75;15.48;;;11.30;97.60;;;;;;5072386;28;20058;-60
2021/11/14 06:28:34;;;;;;;23.02;16.85;;;11.40;98.00;;;;;;5073274;28;20085;-64
2021/11/14 06:31:00;;;;;;;22.50;14.77;;;11.50;97.50;;;;;;5073761;28;20051;-65
2021/11/14 06:33:25;;;;;;;23.83;15.93;;;11.50;97.10;;;;;;5072230;28;20036;-66
2021/11/14 06:35:51;;;;;;;21.85;15.10;;;11.40;97.20;;;;;;5090137;28;20028;-64
2021/11/14 06:38:17;;;;;;;30.75;18.80;;;11.50;97.00;;;;;;5044670;28;20040;-65
2021/11/14 06:40:43;;;;;;;26.33;17.02;;;11.50;97.10;;;;;;5088747;28;20032;-65
2021/11/14 06:43:09;;;;;;;24.45;16.55;;;11.50;96.70;;;;;;5071194;28;20055;-65
2021/11/14 06:45:34;;;;;;;21.15;14.23;;;11.40;96.70;;;;;;5073890;28;20070;-65
2021/11/14 06:48:00;;;;;;;21.13;15.07;;;11.40;96.90;;;;;;5072832;28;20028;-65
2021/11/14 06:50:26;;;;;;;21.35;15.02;;;11.40;96.90;;;;;;5072154;28;20072;-65
2021/11/14 06:52:52;;;;;;;23.17;15.75;;;11.40;97.00;;;;;;5070864;28;20050;-63
2021/11/14 06:55:19;;;;;;;29.38;18.63;;;11.40;96.90;;;;;;5073235;28;20040;-64
2021/11/14 06:57:46;;;;;;;27.98;19.92;;;11.30;96.70;;;;;;5074347;28;20548;-64
2021/11/14 07:00:16;;;;;;;26.50;16.17;;;11.20;96.60;;;;;;5055207;28;20065;-65
2021/11/14 07:02:42;;;;;;;23.15;15.75;;;11.00;96.60;;;;;;5072545;28;20045;-66
2021/11/14 07:05:08;;;;;;;25.13;17.85;;;11.00;97.10;;;;;;5059739;28;20032;-65
2021/11/14 07:07:34;;;;;;;21.27;13.38;;;11.00;97.40;;;;;;5072022;28;20044;-67
2021/11/14 07:10:00;;;;;;;28.58;19.13;;;11.00;97.30;;;;;;5073076;28;20115;-64
2021/11/14 07:12:27;;;;;;;26.90;19.30;;;11.00;97.50;;;;;;5072348;28;20115;-66
2021/11/14 07:14:53;;;;;;;28.10;18.35;;;11.10;97.30;;;;;;5071838;28;20036;-67
2021/11/14 07:17:22;;;;;;;26.17;18.33;;;11.20;97.10;;;;;;5073470;28;20104;-65
2021/11/14 07:19:48;;;;;;;30.70;19.52;;;11.30;97.00;;;;;;5089557;28;20135;-66
2021/11/14 07:22:14;;;;;;;31.65;19.08;;;11.40;96.60;;;;;;5072044;28;20381;-66
2021/11/14 07:24:40;;;;;;;17.73;13.00;;;11.20;96.20;;;;;;5070710;28;20062;-67
2021/11/14 07:27:06;;;;;;;24.15;16.73;;;11.10;96.70;;;;;;5071501;28;20530;-65
2021/11/14 07:29:32;;;;;;;28.23;19.35;;;11.20;97.10;;;;;;5088713;28;20051;-65
2021/11/14 07:31:58;;;;;;;26.55;17.80;;;11.10;96.70;;;;;;5087284;28;20036;-64
2021/11/14 07:34:23;;;;;;;27.70;19.98;;;11.00;96.50;;;;;;5071113;28;20032;-65
2021/11/14 07:36:49;;;;;;;25.92;18.80;;;11.10;97.30;;;;;;5072100;28;20036;-64
2021/11/14 07:39:15;;;;;;;24.30;17.83;;;11.10;96.60;;;;;;5073534;28;20462;-65
2021/11/14 07:41:40;;;;;;;28.35;19.55;;;11.10;96.80;;;;;;5087300;28;20097;-64
2021/11/14 07:44:06;;;;;;;27.67;17.00;;;11.10;97.00;;;;;;5071584;28;20032;-64
2021/11/14 07:46:32;;;;;;;31.23;21.10;;;11.20;96.90;;;;;;5070481;28;20059;-65
2021/11/14 07:48:58;;;;;;;28.80;19.05;;;11.30;96.90;;;;;;5072798;28;20137;-64
2021/11/14 07:51:24;;;;;;;29.42;19.15;;;11.30;96.80;;;;;;5071441;28;20063;-64
2021/11/14 07:53:49;;;;;;;28.92;19.85;;;11.40;96.50;;;;;;5072522;28;20436;-64
2021/11/14 07:56:15;;;;;;;27.40;18.00;;;11.40;96.40;;;;;;5072452;28;20085;-65
2021/11/14 07:58:41;;;;;;;29.13;20.30;;;11.40;96.20;;;;;;5088866;28;20051;-64
2021/11/14 08:01:07;;;;;;;34.35;21.63;;;11.30;96.00;;;;;;5070549;28;20051;-65
2021/11/14 08:03:33;;;;;;;33.30;21.00;;;11.30;96.10;;;;;;5068461;28;20044;-64
2021/11/14 08:06:02;;;;;;;31.88;21.25;;;11.10;95.90;;;;;;5070997;28;20047;-65
2021/11/14 08:08:28;;;;;;;30.85;20.75;;;11.00;96.10;;;;;;5070064;28;20044;-65
2021/11/14 08:10:54;;;;;;;30.92;20.08;;;10.90;96.20;;;;;;5071633;28;20039;-65
2021/11/14 08:13:20;;;;;;;30.50;19.35;;;10.80;96.40;;;;;;5071551;28;20037;-65
2021/11/14 08:15:47;;;;;;;35.15;20.55;;;10.80;96.60;;;;;;5087702;28;20036;-65
2021/11/14 08:18:14;;;;;;;32.30;20.60;;;10.80;96.80;;;;;;5089986;28;20399;-65
2021/11/14 08:20:39;;;;;;;38.22;21.55;;;10.80;96.50;;;;;;5069503;28;20036;-64
2021/11/14 08:23:07;;;;;;;37.13;20.88;;;10.70;96.40;;;;;;5056760;28;20573;-63
2021/11/14 08:25:33;;;;;;;36.47;21.13;;;10.60;96.40;;;;;;5050458;28;20051;-62
2021/11/14 08:28:02;;;;;;;34.70;20.70;;;10.50;96.50;;;;;;5052812;28;20528;-62
2021/11/14 08:30:28;;;;;;;36.17;20.80;;;10.40;96.50;;;;;;5070413;28;20036;-62
2021/11/14 08:32:54;;;;;;;34.25;19.98;;;10.40;96.60;;;;;;5085945;28;20130;-62
2021/11/14 08:35:21;;;;;;;34.85;20.40;;;10.30;96.70;;;;;;5068596;28;20044;-63
2021/11/14 08:37:49;;;;;;;36.42;20.67;;;10.30;96.80;;;;;;5083848;28;20055;-61
2021/11/14 08:40:16;;;;;;;37.05;20.35;;;10.20;96.80;;;;;;5070103;28;20419;-61
2021/11/14 08:42:43;;;;;;;37.65;21.00;;;10.20;96.90;;;;;;5069534;28;20044;-61
2021/11/14 08:45:10;;;;;;;37.13;20.10;;;10.20;97.00;;;;;;5086153;28;20043;-63
2021/11/14 08:47:36;;;;;;;38.42;20.95;;;10.20;97.00;;;;;;5069400;28;20051;-63
2021/11/14 08:50:05;;;;;;;35.55;20.50;;;10.20;97.10;;;;;;5058504;28;20040;-62
2021/11/14 08:52:31;;;;;;;34.33;20.30;;;10.20;97.10;;;;;;5071383;28;20037;-62
2021/11/14 08:54:57;;;;;;;35.17;20.60;;;10.20;97.10;;;;;;5069432;28;20131;-61
2021/11/14 08:57:23;;;;;;;34.08;20.52;;;10.20;97.10;;;;;;5071104;28;20115;-62
2021/11/14 08:59:49;;;;;;;36.78;20.77;;;10.20;97.00;;;;;;5056827;28;20147;-66
2021/11/14 09:02:16;;;;;;;36.17;21.48;;;10.20;97.10;;;;;;5057471;28;20045;-59
2021/11/14 09:04:42;;;;;;;37.67;21.23;;;10.20;97.10;;;;;;5057539;28;20040;-61
2021/11/14 09:07:08;;;;;;;35.22;20.40;;;10.20;97.00;;;;;;5068907;28;20066;-61
2021/11/14 09:09:34;;;;;;;39.30;22.42;;;10.20;97.00;;;;;;5070836;28;20122;-61
2021/11/14 09:12:00;;;;;;;34.10;20.40;;;10.20;97.10;;;;;;5056321;28;20051;-62
2021/11/14 09:14:26;;;;;;;37.75;21.80;;;10.20;97.10;;;;;;5070551;28;20036;-61
2021/11/14 09:16:53;;;;;;;37.88;22.60;;;10.20;97.10;;;;;;5057561;28;20044;-64
2021/11/14 09:19:20;;;;;;;34.33;20.70;;;10.20;97.10;;;;;;5086912;28;20044;-64
2021/11/14 09:21:47;;;;;;;35.67;21.25;;;10.20;97.20;;;;;;5065314;28;20062;-65
2021/11/14 09:24:13;;;;;;;39.42;21.80;;;10.20;97.20;;;;;;5070297;28;20036;-62
2021/11/14 09:26:39;;;;;;;33.20;19.98;;;10.20;97.30;;;;;;5071441;28;20119;-64
2021/11/14 09:29:05;;;;;;;35.72;21.38;;;10.20;97.30;;;;;;5068983;28;20143;-64
2021/11/14 09:31:33;;;;;;;37.63;21.08;;;10.20;97.30;;;;;;5060847;28;20044;-64
2021/11/14 09:33:59;;;;;;;37.35;20.35;;;10.20;97.30;;;;;;5068618;28;20059;-64
2021/11/14 09:36:32;;;;;;;32.85;20.55;;;10.20;97.30;;;;;;5069154;28;20396;-64
2021/11/14 09:38:58;;;;;;;32.03;18.88;;;10.20;97.30;;;;;;5067160;28;20040;-64
2021/11/14 09:41:25;;;;;;;37.92;19.98;;;10.20;97.40;;;;;;5088030;28;20049;-62
2021/11/14 09:43:52;;;;;;;32.60;19.60;;;10.20;97.40;;;;;;5071783;28;20032;-62
2021/11/14 09:46:19;;;;;;;30.88;17.38;;;10.20;97.40;;;;;;5069888;28;20542;-62
2021/11/14 09:48:44;;;;;;;28.33;17.17;;;10.30;97.40;;;;;;5069924;28;20606;-62
2021/11/14 09:51:10;;;;;;;32.65;18.60;;;10.30;97.40;;;;;;5057661;28;20120;-62
2021/11/14 09:53:37;;;;;;;32.25;19.02;;;10.30;97.30;;;;;;5068902;28;20039;-63
2021/11/14 09:56:04;;;;;;;30.55;17.13;;;10.40;97.30;;;;;;5084447;28;20043;-63
2021/11/14 09:58:31;;;;;;;31.85;17.42;;;10.40;97.30;;;;;;5085745;28;20052;-62
2021/11/14 10:00:58;;;;;;;33.95;18.55;;;10.50;97.30;;;;;;5071234;28;20079;-62
2021/11/14 10:03:24;;;;;;;40.97;21.80;;;10.50;97.30;;;;;;5071340;28;20045;-62
2021/11/14 10:05:50;;;;;;;39.33;20.13;;;10.50;97.20;;;;;;5068525;28;20040;-62
2021/11/14 10:08:18;;;;;;;38.30;21.00;;;10.50;97.10;;;;;;5084042;28;20123;-62
2021/11/14 10:10:51;;;;;;;41.00;20.63;;;10.50;97.10;;;;;;5084960;28;20037;-63
2021/11/14 10:13:23;;;;;;;37.28;20.73;;;10.50;97.20;;;;;;5071897;28;20117;-64
2021/11/14 10:15:51;;;;;;;40.28;21.27;;;10.40;97.20;;;;;;5069978;28;20091;-63
2021/11/14 10:18:21;;;;;;;42.38;21.23;;;10.40;97.30;;;;;;5055952;28;20368;-64
2021/11/14 10:20:50;;;;;;;40.53;20.73;;;10.50;97.40;;;;;;5057140;28;20087;-63
2021/11/14 10:23:18;;;;;;;40.67;21.65;;;10.50;97.40;;;;;;5071469;28;20048;-62
2021/11/14 10:25:46;;;;;;;37.60;20.35;;;10.50;97.30;;;;;;5069130;28;20044;-62
2021/11/14 10:28:12;;;;;;;55.60;22.60;;;10.50;97.30;;;;;;5088175;28;20154;-62
2021/11/14 10:30:47;;;;;;;38.10;21.35;;;10.50;97.30;;;;;;5071016;28;20036;-62
2021/11/14 10:33:16;;;;;;;36.60;19.17;;;10.50;97.30;;;;;;5073922;28;20044;-63
2021/11/14 10:35:44;;;;;;;38.35;20.15;;;10.50;97.40;;;;;;5089138;28;20044;-63
2021/11/14 10:38:13;;;;;;;35.78;20.50;;;10.60;97.30;;;;;;5041498;28;21027;-63
2021/11/14 10:40:43;;;;;;;32.50;19.67;;;10.60;97.20;;;;;;5061936;28;20384;-63
2021/11/14 10:43:09;;;;;;;34.45;19.42;;;10.50;97.00;;;;;;5073627;28;20115;-63
2021/11/14 10:45:41;;;;;;;35.42;18.60;;;10.50;97.10;;;;;;5072275;28;20082;-63
2021/11/14 10:48:09;;;;;;;39.35;20.83;;;10.50;97.10;;;;;;5071728;28;20055;-64
2021/11/14 10:50:42;;;;;;;39.38;20.15;;;10.50;97.20;;;;;;5073830;28;20039;-63
2021/11/14 10:53:16;;;;;;;33.05;18.75;;;10.50;97.30;;;;;;5060739;28;20078;-62
2021/11/14 10:55:45;;;;;;;35.72;19.70;;;10.50;97.20;;;;;;5059856;28;20032;-62
2021/11/14 10:58:12;;;;;;;36.17;19.38;;;10.60;97.20;;;;;;5089843;28;20045;-63
2021/11/14 11:00:40;;;;;;;32.88;18.80;;;10.60;97.10;;;;;;5074352;28;20060;-62
2021/11/14 11:03:07;;;;;;;34.55;19.67;;;10.60;97.10;;;;;;5089105;28;20492;-62
2021/11/14 11:05:33;;;;;;;44.78;21.85;;;10.60;97.10;;;;;;5087707;28;20032;-62
2021/11/14 11:08:17;;;;;;;37.90;20.73;;;10.60;97.10;;;;;;5088252;28;20044;-63
2021/11/14 11:10:46;;;;;;;35.42;18.27;;;10.70;97.30;;;;;;5071260;28;20400;-63
2021/11/14 11:13:15;;;;;;;35.33;19.08;;;10.60;97.00;;;;;;5072229;28;20044;-63
2021/11/14 11:15:49;;;;;;;39.05;19.38;;;10.60;97.00;;;;;;5085338;28;23141;-63
2021/11/14 11:18:18;;;;;;;40.95;18.13;;;10.70;97.00;;;;;;5073223;28;20063;-63
2021/11/14 11:20:46;;;;;;;30.08;17.40;;;10.70;97.00;;;;;;5061307;28;20044;-62
2021/11/14 11:23:17;;;;;;;37.63;18.67;;;10.70;97.00;;;;;;5071317;28;20048;-62
2021/11/14 11:25:47;;;;;;;35.22;18.15;;;10.70;97.00;;;;;;5072075;28;20051;-62
2021/11/14 11:28:18;;;;;;;36.63;18.90;;;10.80;97.00;;;;;;5088482;28;20044;-61
2021/11/14 11:30:50;;;;;;;34.70;18.10;;;10.80;96.90;;;;;;5059241;28;20128;-61
2021/11/14 11:33:17;;;;;;;34.85;18.50;;;10.70;96.90;;;;;;5088322;28;20134;-61
2021/11/14 11:35:44;;;;;;;32.22;16.98;;;10.80;96.90;;;;;;5069862;28;20060;-63
2021/11/14 11:38:10;;;;;;;35.22;17.73;;;10.80;97.00;;;;;;5067532;28;20043;-62
2021/11/14 11:40:36;;;;;;;35.97;19.45;;;10.80;96.90;;;;;;5071225;28;20427;-61
2021/11/14 11:43:02;;;;;;;36.08;19.25;;;10.70;96.80;;;;;;5057779;28;20124;-62
2021/11/14 11:45:34;;;;;;;36.42;19.65;;;10.70;96.90;;;;;;5059613;28;20071;-62
2021/11/14 11:48:04;;;;;;;34.22;17.40;;;10.70;96.90;;;;;;5070517;28;20918;-61
2021/11/14 11:50:32;;;;;;;34.35;18.98;;;10.70;97.00;;;;;;5072289;28;20040;-62
2021/11/14 11:52:58;;;;;;;35.13;17.35;;;10.60;96.90;;;;;;5057255;28;20040;-62
2021/11/14 11:55:34;;;;;;;32.50;17.60;;;10.70;97.00;;;;;;5060121;28;20785;-62
2021/11/14 11:58:19;;;;;;;30.10;16.55;;;10.70;97.00;;;;;;5088877;28;20420;-62
2021/11/14 12:00:51;;;;;;;29.23;14.98;;;10.70;96.80;;;;;;5075306;28;20504;-60
2021/11/14 12:03:34;;;;;;;27.98;14.30;;;10.70;97.00;;;;;;5058982;28;20044;-60
2021/11/14 12:06:02;;;;;;;30.10;15.50;;;10.80;97.00;;;;;;5087452;28;20838;-59
2021/11/14 12:08:57;;;;;;;27.10;14.68;;;10.80;97.10;;;;;;5087874;28;20052;-60
2021/11/14 12:11:37;;;;;;;27.58;14.90;;;10.90;96.80;;;;;;5060562;28;20913;-58
2021/11/14 12:14:22;;;;;;;25.80;14.40;;;10.90;96.90;;;;;;5042308;28;20052;-59
2021/11/14 12:17:07;;;;;;;27.10;14.00;;;11.10;96.90;;;;;;5072040;28;20036;-59
2021/11/14 12:19:38;;;;;;;28.95;15.73;;;11.30;96.80;;;;;;5071459;28;20048;-58
2021/11/14 12:22:16;;;;;;;21.92;13.05;;;11.20;96.40;;;;;;5066533;28;20041;-59
2021/11/14 12:24:53;;;;;;;30.10;14.90;;;11.30;96.90;;;;;;5070569;28;20036;-59
2021/11/14 12:27:22;;;;;;;22.85;13.27;;;11.40;97.00;;;;;;5072438;28;20497;-59
2021/11/14 12:30:15;;;;;;;28.40;14.98;;;11.40;96.50;;;;;;5070330;28;20038;-59